KBWG

Bowling Green-Warren County Regional Airport

Bowling Green, Kentucky, USA
METAR KBWG 230253Z AUTO 00000KT 10SM CLR 21/20 A3004 RMK AO2 SLP166 T02110200 53010
Observed Flight Rules
May-23 @ 02:53 UTC (20 minutes ago) Visual Flight Rules
Visibility Clouds
10 miles
  • Clear skies
Temperatures Readings
Current 21°C / 70°F
Dewpoint 20°C / 68°F
Humidity 94%
Altimeter 30.04" Hg
Pressure 1016.6 hPa
Elevation 168
METAR KBWG 230253Z AUTO 00000KT 10SM CLR 21/20 A3004 RMK AO2 SLP166 T02110200 53010
Observed Flight Rules
May-23 @ 02:53 UTC
(20 minutes ago)
VFR
Clouds
  • Clear skies
Temperature Dewpoint
21°C / 70°F 20°C / 68°F
Humidity Altimeter Pressure
94% 30.04" Hg 1016.6 hPa